createdAt,value
2023-03-13T00:02:12.673Z,11.00
2023-03-13T00:04:41.148Z,11.10
2023-03-13T00:07:11.388Z,11.10
2023-03-13T00:09:39.747Z,11.10
2023-03-13T00:12:08.515Z,11.00
2023-03-13T00:14:36.965Z,11.10
2023-03-13T00:17:05.441Z,11.10
2023-03-13T00:19:33.854Z,11.10
2023-03-13T00:22:02.284Z,11.00
2023-03-13T00:24:34.012Z,11.00
2023-03-13T00:27:04.853Z,10.90
2023-03-13T00:29:34.293Z,10.90
2023-03-13T00:32:02.797Z,11.10
2023-03-13T00:34:31.549Z,11.10
2023-03-13T00:36:59.957Z,11.20
2023-03-13T00:39:28.359Z,11.10
2023-03-13T00:41:58.173Z,11.00
2023-03-13T00:44:26.552Z,11.10
2023-03-13T00:46:54.953Z,11.00
2023-03-13T00:49:23.397Z,10.90
2023-03-13T00:51:51.806Z,10.90
2023-03-13T00:54:20.203Z,11.10
2023-03-13T00:56:48.720Z,11.10
2023-03-13T00:59:18.480Z,11.20
2023-03-13T01:01:48.024Z,11.30
2023-03-13T01:04:16.554Z,11.30
2023-03-13T01:06:44.942Z,11.30
2023-03-13T01:09:14.808Z,11.40
2023-03-13T01:11:43.988Z,11.40
2023-03-13T01:14:13.739Z,11.30
2023-03-13T01:16:43.833Z,11.40
2023-03-13T01:19:13.561Z,11.30
2023-03-13T01:21:42.086Z,11.10
2023-03-13T01:24:10.854Z,11.00
2023-03-13T01:26:39.220Z,10.90
2023-03-13T01:29:07.698Z,10.80
2023-03-13T01:31:37.046Z,10.60
2023-03-13T01:34:07.230Z,10.60
2023-03-13T01:36:36.863Z,10.40
2023-03-13T01:39:06.071Z,10.40
2023-03-13T01:41:48.417Z,10.30
2023-03-13T01:44:21.981Z,10.20
2023-03-13T01:46:50.472Z,10.20
2023-03-13T01:49:22.127Z,10.30
2023-03-13T01:51:51.668Z,10.30
2023-03-13T01:54:21.688Z,10.40
2023-03-13T01:56:52.217Z,10.40
2023-03-13T01:59:22.268Z,10.50
2023-03-13T02:01:52.655Z,10.50
2023-03-13T02:04:23.161Z,10.60
2023-03-13T02:06:53.815Z,10.50
2023-03-13T02:09:24.117Z,10.60
2023-03-13T02:11:54.777Z,10.50
2023-03-13T02:14:24.639Z,10.40
2023-03-13T02:16:53.871Z,10.40
2023-03-13T02:19:28.942Z,10.40
2023-03-13T02:22:02.136Z,10.40
2023-03-13T02:24:34.282Z,10.40
2023-03-13T02:27:04.272Z,10.40
2023-03-13T02:29:32.735Z,10.40
2023-03-13T02:32:01.240Z,10.30
2023-03-13T02:34:31.504Z,10.30
2023-03-13T02:37:00.610Z,10.30
2023-03-13T02:39:30.511Z,10.30
2023-03-13T02:41:59.271Z,10.30
2023-03-13T02:44:29.104Z,10.40
2023-03-13T02:46:57.603Z,10.40
2023-03-13T02:49:27.037Z,10.40
2023-03-13T02:51:56.146Z,10.40
2023-03-13T02:54:25.779Z,10.30
2023-03-13T02:56:57.036Z,10.30
2023-03-13T02:59:25.601Z,10.40
2023-03-13T03:01:55.483Z,10.30
2023-03-13T03:04:24.803Z,10.40
2023-03-13T03:06:53.662Z,10.30
2023-03-13T03:09:22.425Z,10.30
2023-03-13T03:11:51.379Z,10.30
2023-03-13T03:14:19.878Z,10.30
2023-03-13T03:16:48.440Z,10.30
2023-03-13T03:19:18.335Z,10.20
2023-03-13T03:21:46.866Z,10.20
2023-03-13T03:24:15.258Z,10.20
2023-03-13T03:26:43.715Z,10.10
2023-03-13T03:29:12.129Z,10.10
2023-03-13T03:31:40.625Z,10.10
2023-03-13T03:34:09.163Z,10.10
2023-03-13T03:36:39.024Z,10.10
2023-03-13T03:39:07.509Z,10.20
2023-03-13T03:41:35.969Z,10.30
2023-03-13T03:44:04.383Z,10.20
2023-03-13T03:46:32.902Z,10.20
2023-03-13T03:49:01.343Z,10.30
2023-03-13T03:51:29.728Z,10.30
2023-03-13T03:53:59.569Z,10.40
2023-03-13T03:56:27.994Z,10.40
2023-03-13T03:58:56.438Z,10.40
2023-03-13T04:01:24.856Z,10.40
2023-03-13T04:03:53.357Z,10.30
2023-03-13T04:06:21.763Z,10.40
2023-03-13T04:08:50.332Z,10.30
2023-03-13T04:11:20.285Z,10.30
2023-03-13T04:13:48.670Z,10.30
2023-03-13T04:16:17.182Z,10.20
2023-03-13T04:18:45.597Z,10.30
2023-03-13T04:21:14.028Z,10.20
2023-03-13T04:23:42.511Z,10.30
2023-03-13T04:26:10.928Z,10.20
2023-03-13T04:28:40.777Z,10.20
2023-03-13T04:31:09.328Z,10.20
2023-03-13T04:33:37.786Z,10.20
2023-03-13T04:36:06.632Z,10.20
2023-03-13T04:38:35.141Z,10.30
2023-03-13T04:41:03.483Z,10.30
2023-03-13T04:43:31.894Z,10.40
2023-03-13T04:46:01.756Z,10.40
2023-03-13T04:48:30.147Z,10.30
2023-03-13T04:50:58.566Z,10.40
2023-03-13T04:53:40.842Z,10.30
2023-03-13T04:56:09.246Z,10.20
2023-03-13T04:58:37.615Z,10.10
2023-03-13T05:01:07.610Z,10.20
2023-03-13T05:03:36.074Z,10.30
2023-03-13T05:06:04.583Z,10.20
2023-03-13T05:08:33.032Z,10.20
2023-03-13T05:11:01.461Z,10.10
2023-03-13T05:13:29.939Z,10.10
2023-03-13T05:15:58.475Z,10.10
2023-03-13T05:18:28.306Z,10.00
2023-03-13T05:20:56.739Z,10.00
2023-03-13T05:23:25.297Z,9.90
2023-03-13T05:25:53.764Z,9.90
2023-03-13T05:28:22.052Z,9.90
2023-03-13T05:30:50.569Z,9.90
2023-03-13T05:33:20.630Z,10.00
2023-03-13T05:35:50.807Z,10.00
2023-03-13T05:38:19.254Z,10.20
2023-03-13T05:40:47.657Z,10.20
2023-03-13T05:43:16.019Z,10.10
2023-03-13T05:45:44.418Z,10.10
2023-03-13T05:48:12.895Z,10.00
2023-03-13T05:50:41.302Z,9.90
2023-03-13T05:53:11.066Z,9.90
2023-03-13T05:55:39.447Z,9.90
2023-03-13T05:58:07.860Z,9.80
2023-03-13T06:00:36.268Z,9.80
2023-03-13T06:03:04.825Z,9.80
2023-03-13T06:05:33.273Z,9.80
2023-03-13T06:08:03.097Z,9.80
2023-03-13T06:10:32.918Z,9.90
2023-03-13T06:13:13.672Z,9.90
2023-03-13T06:15:52.289Z,9.90
2023-03-13T06:18:20.985Z,10.00
2023-03-13T06:20:49.688Z,10.00
2023-03-13T06:23:18.248Z,10.00
2023-03-13T06:25:49.807Z,10.10
2023-03-13T06:28:18.576Z,10.10
2023-03-13T06:30:47.268Z,10.10
2023-03-13T06:33:16.049Z,10.20
2023-03-13T06:35:55.868Z,10.20
2023-03-13T06:38:25.399Z,10.30
2023-03-13T06:40:55.435Z,10.30
2023-03-13T06:43:23.918Z,10.40
2023-03-13T06:45:52.283Z,10.50
2023-03-13T06:48:23.106Z,10.50
2023-03-13T06:50:51.636Z,10.50
2023-03-13T06:53:21.011Z,10.60
2023-03-13T06:55:49.934Z,10.70
2023-03-13T06:58:31.765Z,10.80
2023-03-13T07:01:00.957Z,10.90
2023-03-13T07:03:29.399Z,10.90
2023-03-13T07:05:58.141Z,11.10
2023-03-13T07:08:26.739Z,11.10
2023-03-13T07:10:55.724Z,11.20
2023-03-13T07:13:25.562Z,11.20
2023-03-13T07:15:54.042Z,11.30
2023-03-13T07:18:22.557Z,11.30
2023-03-13T07:20:54.404Z,11.30
2023-03-13T07:23:22.829Z,11.40
2023-03-13T07:25:54.754Z,11.50
2023-03-13T07:28:23.328Z,11.50
2023-03-13T07:30:53.110Z,11.60
2023-03-13T07:33:21.607Z,11.70
2023-03-13T07:35:50.436Z,11.70
2023-03-13T07:38:19.111Z,11.80
2023-03-13T07:40:50.778Z,11.80
2023-03-13T07:43:19.460Z,11.90
2023-03-13T07:45:56.552Z,12.00
2023-03-13T07:48:25.816Z,12.00
2023-03-13T07:50:55.752Z,12.10
2023-03-13T07:53:24.247Z,12.20
2023-03-13T07:55:53.421Z,12.30
2023-03-13T07:58:22.009Z,12.40
2023-03-13T08:00:50.610Z,12.60
2023-03-13T08:03:20.515Z,12.90
2023-03-13T08:05:48.899Z,13.20
2023-03-13T08:08:17.336Z,13.30
2023-03-13T08:10:45.907Z,13.60
2023-03-13T08:13:14.338Z,13.80
2023-03-13T08:15:42.829Z,14.10
2023-03-13T08:18:11.296Z,14.40
2023-03-13T08:20:41.045Z,14.90
2023-03-13T08:23:09.523Z,15.30
2023-03-13T08:25:37.936Z,15.60
2023-03-13T08:28:06.395Z,15.90
2023-03-13T08:30:34.897Z,16.30
2023-03-13T08:33:04.870Z,16.60
2023-03-13T08:35:34.924Z,16.80
2023-03-13T08:38:04.862Z,17.10
2023-03-13T08:40:33.264Z,17.30
2023-03-13T08:43:01.800Z,17.50
2023-03-13T08:45:30.139Z,17.60
2023-03-13T08:47:58.560Z,17.80
2023-03-13T08:50:27.003Z,18.10
2023-03-13T08:52:55.448Z,18.30
2023-03-13T08:55:39.193Z,18.30
2023-03-13T08:58:07.571Z,18.30
2023-03-13T09:00:35.955Z,18.40
2023-03-13T09:03:04.670Z,18.40
2023-03-13T09:05:38.580Z,18.50
2023-03-13T09:08:11.683Z,18.50
2023-03-13T09:10:41.488Z,18.60
2023-03-13T09:13:09.889Z,18.70
2023-03-13T09:15:38.567Z,18.70
2023-03-13T09:18:07.781Z,18.80
2023-03-13T09:20:36.224Z,18.80
2023-03-13T09:23:04.644Z,18.90
2023-03-13T09:25:33.018Z,18.90
2023-03-13T09:28:02.796Z,18.80
2023-03-13T09:30:31.303Z,18.80
2023-03-13T09:32:59.822Z,18.90
2023-03-13T09:35:28.353Z,18.80
2023-03-13T09:37:57.495Z,18.80
2023-03-13T09:40:27.560Z,18.80
2023-03-13T09:42:57.153Z,18.90
2023-03-13T09:45:31.409Z,18.80
2023-03-13T09:48:00.950Z,18.80
2023-03-13T09:50:31.164Z,18.80
2023-03-13T09:53:03.880Z,18.80
2023-03-13T09:55:33.949Z,18.70
2023-03-13T09:58:05.473Z,18.60
2023-03-13T10:00:37.571Z,18.70
2023-03-13T10:03:08.740Z,18.70
2023-03-13T10:05:37.148Z,18.60
2023-03-13T10:08:11.552Z,18.70
2023-03-13T10:10:43.448Z,18.80
2023-03-13T10:13:16.609Z,18.70
2023-03-13T10:15:48.178Z,18.60
2023-03-13T10:18:18.507Z,18.70
2023-03-13T10:20:48.012Z,18.70
2023-03-13T10:23:19.373Z,18.70
2023-03-13T10:25:48.092Z,18.50
2023-03-13T10:28:17.194Z,18.50
2023-03-13T10:30:49.076Z,18.40
2023-03-13T10:33:21.570Z,18.40
2023-03-13T10:36:00.697Z,18.50
2023-03-13T10:38:29.513Z,18.60
2023-03-13T10:40:58.951Z,18.60
2023-03-13T10:43:27.958Z,18.50
2023-03-13T10:45:57.850Z,18.50
2023-03-13T10:48:27.499Z,18.60
2023-03-13T10:50:57.476Z,18.70
2023-03-13T10:53:27.355Z,18.70
2023-03-13T10:55:56.393Z,18.80
2023-03-13T10:58:28.770Z,18.80
2023-03-13T11:01:10.148Z,18.80
2023-03-13T11:03:38.602Z,18.90
2023-03-13T11:06:07.182Z,19.00
2023-03-13T11:08:36.923Z,19.00
2023-03-13T11:11:06.424Z,19.10
2023-03-13T11:13:38.053Z,19.10
2023-03-13T11:16:20.699Z,19.10
2023-03-13T11:19:07.946Z,19.20
2023-03-13T11:21:39.003Z,19.10
2023-03-13T11:24:11.575Z,19.30
2023-03-13T11:26:49.686Z,19.30
2023-03-13T11:29:27.937Z,19.50
2023-03-13T11:31:59.622Z,19.50
2023-03-13T11:34:32.541Z,19.50
2023-03-13T11:37:03.540Z,19.60
2023-03-13T11:39:49.663Z,19.60
2023-03-13T11:42:30.494Z,19.70
2023-03-13T11:45:02.386Z,19.70
2023-03-13T11:47:39.845Z,19.60
2023-03-13T11:50:14.225Z,19.70
2023-03-13T11:52:49.536Z,19.80
2023-03-13T11:55:32.799Z,19.90
2023-03-13T11:58:06.426Z,20.00
2023-03-13T12:00:36.603Z,19.90
2023-03-13T12:03:12.916Z,19.80
2023-03-13T12:05:45.643Z,19.70
2023-03-13T12:08:17.200Z,19.50
2023-03-13T12:10:47.388Z,19.30
2023-03-13T12:13:18.334Z,19.30
2023-03-13T12:15:48.050Z,19.30
2023-03-13T12:18:20.677Z,19.30
2023-03-13T12:20:53.570Z,19.20
2023-03-13T12:23:25.070Z,19.10
2023-03-13T12:25:56.352Z,19.00
2023-03-13T12:28:28.453Z,18.90
2023-03-13T12:31:00.577Z,18.90
2023-03-13T12:33:32.219Z,18.80
2023-03-13T12:36:04.145Z,18.80
2023-03-13T12:38:37.212Z,18.90
2023-03-13T12:41:10.486Z,18.70
2023-03-13T12:43:40.816Z,18.50
2023-03-13T12:46:19.073Z,18.40
2023-03-13T12:49:07.795Z,18.30
2023-03-13T12:51:43.453Z,18.10
2023-03-13T12:54:20.963Z,17.90
2023-03-13T12:56:55.244Z,17.80
2023-03-13T12:59:25.407Z,17.60
2023-03-13T13:01:55.314Z,17.50
2023-03-13T13:04:26.778Z,17.40
2023-03-13T13:06:57.356Z,17.50
2023-03-13T13:09:27.212Z,17.50
2023-03-13T13:11:56.677Z,17.40
2023-03-13T13:14:55.507Z,17.30
2023-03-13T13:17:27.371Z,17.30
2023-03-13T13:19:57.844Z,17.20
2023-03-13T13:22:44.638Z,17.10
2023-03-13T13:25:30.261Z,17.00
2023-03-13T13:28:11.946Z,17.00
2023-03-13T13:30:40.524Z,17.00
2023-03-13T13:33:30.703Z,17.00
2023-03-13T13:36:15.935Z,17.10
2023-03-13T13:38:45.889Z,17.10
2023-03-13T13:41:41.044Z,17.10
2023-03-13T13:44:36.324Z,17.20
2023-03-13T13:47:04.739Z,17.10
2023-03-13T13:49:34.597Z,17.20
2023-03-13T13:52:21.454Z,17.10
2023-03-13T13:54:59.171Z,17.20
2023-03-13T13:57:28.840Z,17.20
2023-03-13T14:00:00.647Z,17.30
2023-03-13T14:02:33.050Z,17.30
2023-03-13T14:05:04.031Z,17.20
2023-03-13T14:07:48.186Z,17.10
2023-03-13T14:10:25.702Z,17.20
2023-03-13T14:12:55.115Z,17.10
2023-03-13T14:15:24.324Z,17.10
2023-03-13T14:17:54.458Z,17.20
2023-03-13T14:20:25.072Z,17.20
2023-03-13T14:22:54.550Z,17.20
2023-03-13T14:25:25.754Z,17.20
2023-03-13T14:27:54.853Z,17.10
2023-03-13T14:30:24.104Z,17.10
2023-03-13T14:32:54.031Z,17.00
2023-03-13T14:35:23.637Z,17.00
2023-03-13T14:37:53.372Z,17.00
2023-03-13T14:40:27.795Z,16.90
2023-03-13T14:42:57.571Z,16.80
2023-03-13T14:45:28.596Z,16.90
2023-03-13T14:47:57.353Z,16.80
2023-03-13T14:50:26.277Z,16.80
2023-03-13T14:52:55.919Z,16.80
2023-03-13T14:55:30.444Z,16.80
2023-03-13T14:57:59.646Z,16.80
2023-03-13T15:00:36.056Z,16.80
2023-03-13T15:03:14.224Z,16.80
2023-03-13T15:05:42.690Z,16.80
2023-03-13T15:08:14.301Z,16.70
2023-03-13T15:10:44.416Z,16.80
2023-03-13T15:13:16.580Z,16.70
2023-03-13T15:15:45.118Z,16.60
2023-03-13T15:18:18.695Z,16.60
2023-03-13T15:20:50.518Z,16.60
2023-03-13T15:23:19.030Z,16.50
2023-03-13T15:25:49.196Z,16.40
2023-03-13T15:28:18.790Z,16.40
2023-03-13T15:30:48.039Z,16.40
2023-03-13T15:33:17.284Z,16.30
2023-03-13T15:35:46.298Z,16.30
2023-03-13T15:38:15.582Z,16.20
2023-03-13T15:40:44.229Z,16.20
2023-03-13T15:43:16.648Z,16.20
2023-03-13T15:45:47.954Z,16.10
2023-03-13T15:48:17.671Z,16.10
2023-03-13T15:50:46.545Z,16.00
2023-03-13T15:53:18.619Z,15.90
2023-03-13T15:55:47.726Z,15.80
2023-03-13T15:58:17.550Z,15.80
2023-03-13T16:00:46.817Z,15.80
2023-03-13T16:03:16.440Z,15.80
2023-03-13T16:05:45.030Z,15.80
2023-03-13T16:08:23.235Z,15.80
2023-03-13T16:11:02.562Z,15.70
2023-03-13T16:13:32.684Z,15.70
2023-03-13T16:16:01.160Z,15.70
2023-03-13T16:18:29.708Z,15.70
2023-03-13T16:20:58.136Z,15.70
2023-03-13T16:23:26.546Z,15.60
2023-03-13T16:25:54.928Z,15.60
2023-03-13T16:28:23.374Z,15.50
2023-03-13T16:30:53.298Z,15.50
2023-03-13T16:33:21.800Z,15.50
2023-03-13T16:35:52.192Z,15.50
2023-03-13T16:38:21.416Z,15.50
2023-03-13T16:40:49.831Z,15.40
2023-03-13T16:43:18.421Z,15.40
2023-03-13T16:45:47.982Z,15.40
2023-03-13T16:48:20.126Z,15.40
2023-03-13T16:50:48.639Z,15.40
2023-03-13T16:53:17.184Z,15.40
2023-03-13T16:55:45.623Z,15.40
2023-03-13T16:58:14.123Z,15.40
2023-03-13T17:00:45.474Z,15.30
2023-03-13T17:03:18.460Z,15.30
2023-03-13T17:05:46.842Z,15.30
2023-03-13T17:08:15.760Z,15.20
2023-03-13T17:10:44.210Z,15.20
2023-03-13T17:13:12.582Z,15.10
2023-03-13T17:15:40.953Z,15.10
2023-03-13T17:18:10.690Z,15.00
2023-03-13T17:20:40.510Z,14.90
2023-03-13T17:23:08.878Z,14.90
2023-03-13T17:25:37.324Z,14.90
2023-03-13T17:28:05.828Z,14.90
2023-03-13T17:30:34.655Z,14.90
2023-03-13T17:33:03.105Z,14.90
2023-03-13T17:35:31.548Z,14.90
2023-03-13T17:38:01.335Z,14.80
2023-03-13T17:40:31.367Z,14.80
2023-03-13T17:42:59.798Z,14.70
2023-03-13T17:45:28.232Z,14.70
2023-03-13T17:47:57.061Z,14.60
2023-03-13T17:50:27.070Z,14.60
2023-03-13T17:52:55.564Z,14.60
2023-03-13T17:55:25.463Z,14.60
2023-03-13T17:57:53.958Z,14.60
2023-03-13T18:00:23.458Z,14.60
2023-03-13T18:02:52.083Z,14.50
2023-03-13T18:05:20.628Z,14.50
2023-03-13T18:07:49.730Z,14.50
2023-03-13T18:10:19.822Z,14.40
2023-03-13T18:12:50.726Z,14.40
2023-03-13T18:15:19.347Z,14.40
2023-03-13T18:17:47.867Z,14.40
2023-03-13T18:20:17.400Z,14.50
2023-03-13T18:22:46.810Z,14.50
2023-03-13T18:25:15.618Z,14.60
2023-03-13T18:27:44.072Z,14.60
2023-03-13T18:30:16.736Z,14.70
2023-03-13T18:32:45.293Z,14.80
2023-03-13T18:35:14.802Z,14.80
2023-03-13T18:37:44.247Z,14.90
2023-03-13T18:40:17.225Z,14.90
2023-03-13T18:42:45.770Z,15.10
2023-03-13T18:45:19.143Z,15.20
2023-03-13T18:47:48.354Z,15.30
2023-03-13T18:50:18.913Z,15.40
2023-03-13T18:52:47.344Z,15.40
2023-03-13T18:55:15.996Z,15.40
2023-03-13T18:57:44.440Z,15.40
2023-03-13T19:00:17.292Z,15.40
2023-03-13T19:02:47.254Z,15.40
2023-03-13T19:05:15.738Z,15.40
2023-03-13T19:07:44.203Z,15.40
2023-03-13T19:10:20.387Z,15.40
2023-03-13T19:12:49.215Z,15.30
2023-03-13T19:15:17.774Z,15.30
2023-03-13T19:17:47.636Z,15.20
2023-03-13T19:20:17.130Z,15.20
2023-03-13T19:22:45.627Z,15.20
2023-03-13T19:25:16.367Z,15.10
2023-03-13T19:27:44.878Z,15.00
2023-03-13T19:30:17.849Z,14.90
2023-03-13T19:32:48.149Z,14.90
2023-03-13T19:35:18.914Z,14.80
2023-03-13T19:37:47.698Z,14.70
2023-03-13T19:40:20.902Z,14.70
2023-03-13T19:42:49.292Z,14.70
2023-03-13T19:45:19.770Z,14.70
2023-03-13T19:47:49.621Z,14.70
2023-03-13T19:50:19.400Z,14.80
2023-03-13T19:52:47.899Z,14.60
2023-03-13T19:55:16.477Z,14.60
2023-03-13T19:57:44.923Z,14.60
2023-03-13T20:00:18.716Z,14.50
2023-03-13T20:02:47.166Z,14.50
2023-03-13T20:05:17.179Z,14.50
2023-03-13T20:07:45.724Z,14.40
2023-03-13T20:10:14.155Z,14.50
2023-03-13T20:12:42.824Z,14.50
2023-03-13T20:15:11.976Z,14.50
2023-03-13T20:17:40.479Z,14.50
2023-03-13T20:20:09.797Z,14.50
2023-03-13T20:22:39.578Z,14.40
2023-03-13T20:25:08.191Z,14.40
2023-03-13T20:27:37.377Z,14.30
2023-03-13T20:30:06.569Z,14.30
2023-03-13T20:32:35.758Z,14.40
2023-03-13T20:35:10.418Z,14.30
2023-03-13T20:37:40.214Z,14.30
2023-03-13T20:40:10.756Z,14.20
2023-03-13T20:42:39.282Z,14.30
2023-03-13T20:45:09.447Z,14.30
2023-03-13T20:47:38.055Z,14.30
2023-03-13T20:50:07.743Z,14.30
2023-03-13T20:52:36.166Z,14.30
2023-03-13T20:55:06.579Z,14.20
2023-03-13T20:57:36.706Z,14.30
2023-03-13T21:00:07.131Z,14.20
2023-03-13T21:02:35.539Z,14.20
2023-03-13T21:05:03.938Z,14.20
2023-03-13T21:07:32.784Z,14.20
2023-03-13T21:10:01.206Z,14.30
2023-03-13T21:12:31.032Z,14.20
2023-03-13T21:14:59.500Z,14.20
2023-03-13T21:17:27.902Z,14.20
2023-03-13T21:19:56.405Z,14.20
2023-03-13T21:22:27.354Z,14.20
2023-03-13T21:24:55.828Z,14.10
2023-03-13T21:27:24.311Z,14.10
2023-03-13T21:29:54.250Z,14.10
2023-03-13T21:32:23.280Z,14.10
2023-03-13T21:34:51.772Z,14.00
2023-03-13T21:37:20.250Z,14.00
2023-03-13T21:39:51.265Z,14.00
2023-03-13T21:42:20.313Z,14.10
2023-03-13T21:44:49.375Z,14.00
2023-03-13T21:47:24.454Z,14.00
2023-03-13T21:49:53.249Z,14.00
2023-03-13T21:52:22.799Z,14.00
2023-03-13T21:54:51.305Z,14.00
2023-03-13T21:57:19.780Z,14.00
2023-03-13T21:59:48.168Z,14.00
2023-03-13T22:02:16.763Z,14.00
2023-03-13T22:04:46.654Z,14.00
2023-03-13T22:07:15.139Z,13.90
2023-03-13T22:09:43.580Z,13.90
2023-03-13T22:12:12.102Z,13.90
2023-03-13T22:14:41.796Z,13.90
2023-03-13T22:17:16.752Z,14.00
2023-03-13T22:19:46.613Z,13.90
2023-03-13T22:22:15.428Z,13.90
2023-03-13T22:24:43.841Z,13.90
2023-03-13T22:27:12.892Z,13.80
2023-03-13T22:29:41.287Z,13.80
2023-03-13T22:32:09.889Z,13.80
2023-03-13T22:34:38.377Z,13.80
2023-03-13T22:37:08.218Z,13.80
2023-03-13T22:39:36.659Z,13.90
2023-03-13T22:42:05.284Z,13.90
2023-03-13T22:44:33.726Z,13.90
2023-03-13T22:47:02.153Z,13.90
2023-03-13T22:49:30.600Z,13.80
2023-03-13T22:51:59.389Z,13.80
2023-03-13T22:54:29.192Z,13.80
2023-03-13T22:56:57.701Z,13.90
2023-03-13T22:59:26.243Z,13.90
2023-03-13T23:01:54.907Z,13.80
2023-03-13T23:04:23.338Z,13.80
2023-03-13T23:06:51.767Z,13.80
2023-03-13T23:09:20.291Z,13.90
2023-03-13T23:11:50.103Z,13.90
2023-03-13T23:14:18.455Z,13.80
2023-03-13T23:16:46.997Z,13.80
2023-03-13T23:19:15.509Z,13.70
2023-03-13T23:21:44.305Z,13.70
2023-03-13T23:24:12.885Z,13.70
2023-03-13T23:26:41.378Z,13.70
2023-03-13T23:29:11.170Z,13.70
2023-03-13T23:31:39.649Z,13.60
2023-03-13T23:34:08.020Z,13.60
2023-03-13T23:36:36.383Z,13.60
2023-03-13T23:39:05.717Z,13.60
2023-03-13T23:41:34.195Z,13.60
2023-03-13T23:44:02.615Z,13.60
2023-03-13T23:46:32.515Z,13.60
2023-03-13T23:49:00.891Z,13.60
2023-03-13T23:51:29.405Z,13.60
2023-03-13T23:53:57.933Z,13.50
2023-03-13T23:56:26.431Z,13.50
2023-03-13T23:58:55.327Z,13.60
